Time;durP1;ratioP1;P1;durP2;ratioP2;P2;SDS_P1;SDS_P2;PMS_P1;PMS_P2;Temp;Humidity;BMP_temperature;BMP_pressure;BME280_temperature;BME280_humidity;BME280_pressure;Samples;Min_cycle;Max_cycle;Signal;HPM_P1;HPM_P2
2022/09/19 00:56:18;;;;;;;0.60;0.40;;;;;;;14.73;49.08;98968.44;5885610;24;20165;-94
2022/09/19 02:22:46;;;;;;;;;;;;;;;;;;;;;
2022/09/19 02:39:57;;;;;;;1.10;0.90;;;;;;;14.54;50.45;98967.25;5669538;25;20184;-91
2022/09/19 02:42:52;;;;;;;1.10;0.57;;;;;;;14.54;50.19;98969.91;5743768;24;20168;-91
2022/09/19 02:50:19;;;;;;;;;;;;;;;;;;;;;
2022/09/19 04:10:14;;;;;;;;;;;;;;;;;;;;;
2022/09/19 04:13:12;;;;;;;;;;;;;;;;;;;;;
2022/09/19 04:16:18;;;;;;;;;;;;;;;;;;;;;
2022/09/19 04:19:40;;;;;;;;;;;;;;;;;;;;;
2022/09/19 04:22:49;;;;;;;1.63;0.90;;;;;;;13.12;57.68;99006.00;6068031;23;20531;-91
2022/09/19 04:35:50;;;;;;;1.87;1.17;;;;;;;13.14;57.82;99027.78;6009737;23;20593;-91
2022/09/19 04:38:42;;;;;;;1.70;1.00;;;;;;;13.25;57.19;99027.94;6090961;23;20506;-90
2022/09/19 05:44:33;;;;;;;1.20;0.67;;;;;;;14.97;53.46;99028.31;5992409;23;4075865;-90
2022/09/19 05:47:03;;;;;;;1.10;0.50;;;;;;;15.34;52.43;99016.78;6138087;23;20512;-90
2022/09/19 05:49:54;;;;;;;;;;;;;;;;;;;;;
2022/09/19 05:55:16;;;;;;;2.67;1.20;;;;;;;16.11;49.77;99015.38;6164677;23;20172;-90
2022/09/19 05:57:44;;;;;;;3.30;1.23;;;;;;;16.17;49.99;99013.06;6138652;23;20255;-90
2022/09/19 06:00:50;;;;;;;1.90;0.90;;;;;;;16.22;50.00;99018.84;6138202;23;20227;-91
2022/09/19 06:03:57;;;;;;;4.33;1.40;;;;;;;16.63;49.36;99015.66;6161984;23;20168;-91
2022/09/19 06:06:23;;;;;;;3.50;1.77;;;;;;;16.83;49.04;99016.72;6137706;23;20167;-90
2022/09/19 06:09:00;;;;;;;2.30;1.33;;;;;;;16.88;48.54;99015.38;6138096;23;20464;-90
2022/09/19 06:19:24;;;;;;;;;;;;;;;;;;;;;
2022/09/19 06:21:55;;;;;;;7.63;1.57;;;;;;;18.22;46.14;99010.38;5955981;24;20238;-91
2022/09/19 06:24:21;;;;;;;3.83;1.57;;;;;;;18.60;44.73;99010.59;5989885;23;20202;-91
2022/09/19 06:26:48;;;;;;;4.17;1.13;;;;;;;18.92;44.48;99013.91;6137691;23;20158;-90
2022/09/19 06:29:14;;;;;;;2.53;1.17;;;;;;;19.27;43.90;99013.41;6132698;23;20155;-90
2022/09/19 06:31:44;;;;;;;2.70;0.80;;;;;;;19.61;42.09;99016.53;6131833;23;20522;-91
2022/09/19 06:34:22;;;;;;;3.73;1.27;;;;;;;19.80;41.26;99013.88;6131225;23;20155;-91
2022/09/19 06:40:37;;;;;;;;;;;;;;;;;;;;;
2022/09/19 06:47:08;;;;;;;;;;;;;;;;;;;;;
2022/09/19 08:35:40;;;;;;;;;;;;;;;;;;;;;
2022/09/19 08:38:34;;;;;;;0.50;0.13;;;;;;;26.05;25.92;98939.06;5970120;24;20383;-91
2022/09/19 08:49:10;;;;;;;1.03;0.20;;;;;;;26.05;23.94;98929.16;5899247;24;20188;-93
2022/09/19 08:52:44;;;;;;;;;;;;;;;;;;;;;
2022/09/19 08:56:04;;;;;;;0.40;0.22;;;;;;;26.22;25.31;98911.06;5870503;24;20260;-91
2022/09/19 08:59:13;;;;;;;1.10;0.20;;;;;;;26.62;24.62;98912.44;5819286;24;20203;-91
2022/09/19 09:01:42;;;;;;;0.65;0.10;;;;;;;26.86;24.58;98904.03;5842123;24;20236;-93
2022/09/19 09:05:16;;;;;;;1.00;0.10;;;;;;;26.51;23.57;98907.53;5844855;24;20193;-92
2022/09/19 09:08:34;;;;;;;0.65;0.30;;;;;;;26.34;24.97;98900.66;5738970;24;20164;-91
2022/09/19 09:15:06;;;;;;;0.93;0.30;;;;;;;26.89;24.11;98892.91;5913587;24;20202;-91
2022/09/19 09:21:18;;;;;;;0.43;0.25;;;;;;;27.40;23.41;98889.13;6086309;23;20492;-90
2022/09/19 09:28:26;;;;;;;2.13;0.30;;;;;;;27.29;22.84;98881.53;6096593;23;20164;-92
2022/09/19 09:31:10;;;;;;;1.02;0.30;;;;;;;27.66;22.66;98874.22;5984626;23;20668;-90
2022/09/19 09:33:42;;;;;;;0.38;0.20;;;;;;;27.73;21.81;98872.38;6071497;23;20214;-89
2022/09/19 09:36:15;;;;;;;2.92;0.50;;;;;;;27.69;22.25;98863.88;6096970;23;20144;-91
2022/09/19 09:49:31;;;;;;;0.60;0.22;;;;;;;27.63;23.50;98858.44;5870409;24;20213;-92
2022/09/19 10:18:54;;;;;;;1.40;0.28;;;;;;;28.69;21.03;98840.00;5899379;24;20168;-91
2022/09/19 10:22:22;;;;;;;2.65;0.40;;;;;;;28.79;21.52;98832.34;5902355;24;20163;-90
2022/09/19 10:28:41;;;;;;;;;;;;;;;;;;;;;
2022/09/19 10:34:35;;;;;;;0.20;0.10;;;;;;;29.27;20.42;98808.78;5982966;24;20248;-90
2022/09/19 10:37:38;;;;;;;0.40;0.20;;;;;;;28.94;20.58;98813.28;5959205;24;20273;-92
2022/09/19 10:43:38;;;;;;;2.75;0.28;;;;;;;29.56;22.05;98799.44;6128290;23;20171;-89
2022/09/19 10:47:02;;;;;;;0.55;0.20;;;;;;;29.63;20.87;98786.72;6127781;23;20150;-91
2022/09/19 10:50:02;;;;;;;0.35;0.20;;;;;;;29.90;20.82;98787.53;6081578;23;20190;-91
2022/09/19 10:52:44;;;;;;;0.80;0.30;;;;;;;29.49;20.67;98780.50;6131883;23;20155;-91
2022/09/19 10:55:22;;;;;;;1.33;0.30;;;;;;;29.54;21.50;98786.09;6132109;23;20162;-90
2022/09/19 10:58:16;;;;;;;0.40;0.20;;;;;;;29.34;21.23;98777.22;6157493;23;20173;-89
2022/09/19 11:01:04;;;;;;;0.38;0.10;;;;;;;29.54;21.51;98767.19;6131246;23;20147;-90
2022/09/19 11:04:21;;;;;;;0.32;0.15;;;;;;;29.65;21.98;98765.72;6131201;23;20230;-90
2022/09/19 11:06:59;;;;;;;0.63;0.20;;;;;;;30.05;21.36;98750.25;6154574;23;20161;-91
2022/09/19 11:09:38;;;;;;;0.82;0.28;;;;;;;30.16;21.72;98749.59;6156848;23;20174;-89
2022/09/19 11:12:16;;;;;;;2.22;0.10;;;;;;;30.05;21.05;98744.84;6132045;23;20471;-90
2022/09/19 11:14:48;;;;;;;0.65;0.30;;;;;;;30.12;20.59;98735.66;6156615;23;20147;-89
2022/09/19 11:17:34;;;;;;;2.65;0.25;;;;;;;30.35;20.54;98743.25;6156983;23;20183;-89
2022/09/19 11:20:00;;;;;;;0.82;0.17;;;;;;;30.29;20.11;98727.91;6130320;23;20159;-90
2022/09/19 11:22:53;;;;;;;0.77;0.20;;;;;;;30.39;21.72;98725.59;6156269;23;20226;-90
2022/09/19 11:25:49;;;;;;;0.20;0.10;;;;;;;30.37;20.90;98724.97;6156724;23;20483;-89
2022/09/19 11:28:35;;;;;;;0.40;0.20;;;;;;;30.51;20.83;98720.28;6131164;23;20559;-90
2022/09/19 11:32:06;;;;;;;0.60;0.20;;;;;;;30.38;20.29;98711.22;6129302;23;20170;-91
2022/09/19 11:35:07;;;;;;;0.70;0.25;;;;;;;30.20;21.27;98708.38;6038529;23;20165;-91
2022/09/19 11:37:53;;;;;;;0.52;0.20;;;;;;;30.50;20.89;98703.25;6013915;23;20244;-91
2022/09/19 11:40:22;;;;;;;0.80;0.30;;;;;;;30.63;20.94;98705.03;6141154;23;20538;-90
2022/09/19 11:43:12;;;;;;;0.65;0.20;;;;;;;31.06;20.27;98707.84;6130196;23;20182;-90
2022/09/19 11:46:20;;;;;;;2.50;0.30;;;;;;;31.08;20.02;98694.94;6130003;23;20238;-91
2022/09/19 11:55:38;;;;;;;0.95;0.20;;;;;;;31.61;20.83;98663.53;6066948;23;20204;-92
2022/09/19 11:58:39;;;;;;;0.85;0.20;;;;;;;31.57;20.52;98656.94;6150141;23;20187;-91
2022/09/19 12:01:20;;;;;;;1.25;0.40;;;;;;;30.99;20.86;98664.59;6129873;23;20154;-89
2022/09/19 12:04:26;;;;;;;;;;;;;;;;;;;;;
2022/09/19 12:07:25;;;;;;;0.50;0.20;;;;;;;30.76;20.05;98670.59;6156601;23;20242;-91
2022/09/19 12:10:40;;;;;;;0.40;0.30;;;;;;;30.53;20.85;98662.22;6156341;23;20190;-91
2022/09/19 12:13:26;;;;;;;0.75;0.32;;;;;;;31.30;20.68;98648.22;6130354;23;20166;-91
2022/09/19 12:19:17;;;;;;;0.95;0.30;;;;;;;30.52;20.61;98651.63;6135375;23;20582;-90
2022/09/19 12:21:50;;;;;;;0.70;0.30;;;;;;;30.92;21.39;98645.69;6130080;23;20148;-90
2022/09/19 12:27:19;;;;;;;1.45;0.40;;;;;;;31.59;20.17;98638.56;6155707;23;20146;-90
2022/09/19 12:30:13;;;;;;;0.95;0.30;;;;;;;31.94;21.16;98636.88;6155746;23;20135;-91
2022/09/19 12:33:04;;;;;;;0.68;0.30;;;;;;;31.88;20.26;98634.22;6130680;23;20224;-92
2022/09/19 12:35:55;;;;;;;0.70;0.30;;;;;;;31.76;20.86;98622.50;6130026;23;20147;-91
2022/09/19 12:38:39;;;;;;;1.13;0.40;;;;;;;32.01;20.41;98623.22;6129433;23;20285;-92
2022/09/19 12:41:50;;;;;;;0.80;0.32;;;;;;;31.85;20.04;98619.25;6155278;23;20189;-91
2022/09/19 12:44:52;;;;;;;1.05;0.30;;;;;;;31.92;20.85;98609.13;6129823;23;20222;-94
2022/09/19 12:47:27;;;;;;;0.77;0.30;;;;;;;31.06;21.19;98611.19;6155550;23;20547;-92
2022/09/19 12:50:07;;;;;;;0.70;0.40;;;;;;;31.11;21.79;98618.63;6130145;23;20228;-92
2022/09/19 12:53:21;;;;;;;1.23;0.60;;;;;;;31.26;21.43;98611.84;6129310;23;20209;-91
2022/09/19 12:56:38;;;;;;;1.70;0.50;;;;;;;31.19;20.82;98610.22;6129355;23;20151;-93
2022/09/19 12:59:37;;;;;;;0.95;0.45;;;;;;;31.28;21.03;98615.13;6005943;23;20599;-91
2022/09/19 13:02:21;;;;;;;1.20;0.50;;;;;;;31.60;20.71;98608.50;6123058;23;20163;-90
2022/09/19 13:04:53;;;;;;;1.77;0.47;;;;;;;31.92;20.73;98601.00;6155417;23;20147;-89
2022/09/19 13:08:31;;;;;;;0.75;0.20;;;;;;;32.05;19.81;98591.91;6155320;23;20140;-91
2022/09/19 13:11:08;;;;;;;1.25;0.32;;;;;;;31.71;19.90;98585.22;6129661;23;20166;-91
2022/09/19 13:13:51;;;;;;;0.85;0.40;;;;;;;31.46;20.18;98589.94;6155122;23;20605;-92
2022/09/19 13:23:29;;;;;;;1.42;0.50;;;;;;;31.77;19.77;98581.63;6154907;23;20134;-91
2022/09/19 13:25:11;;;;;;;0.35;0.13;;;;;;;31.33;21.07;98579.25;6155504;23;20218;-90
2022/09/19 13:27:37;;;;;;;0.75;0.35;;;;;;;31.39;21.08;98567.50;6129895;23;20147;-91
2022/09/19 13:30:48;;;;;;;0.77;0.40;;;;;;;31.36;21.35;98573.38;6155264;23;20173;-92
2022/09/19 13:37:46;;;;;;;;;;;;;;;;;;;;;
2022/09/19 13:41:04;;;;;;;2.55;0.52;;;;;;;31.57;20.99;98557.50;6155712;23;20222;-91
2022/09/19 13:43:45;;;;;;;1.67;0.85;;;;;;;31.50;21.82;98555.91;6155539;23;20268;-90
2022/09/19 13:46:25;;;;;;;2.33;0.85;;;;;;;31.66;21.52;98547.16;6154711;23;20193;-92
2022/09/19 13:49:01;;;;;;;0.70;0.30;;;;;;;31.66;21.33;98555.28;6128650;23;20277;-91
2022/09/19 13:52:08;;;;;;;0.70;0.30;;;;;;;31.52;21.35;98557.38;6132900;23;20524;-92
2022/09/19 13:55:16;;;;;;;0.57;0.28;;;;;;;31.73;21.05;98553.34;6131782;23;20165;-93
2022/09/19 13:57:45;;;;;;;0.80;0.43;;;;;;;31.96;20.54;98547.16;6156216;23;20186;-92
2022/09/19 14:00:40;;;;;;;0.70;0.32;;;;;;;32.27;20.28;98543.34;6156300;23;20475;-92
2022/09/19 14:07:03;;;;;;;0.90;0.40;;;;;;;32.08;19.81;98542.59;6009819;23;20181;-92
2022/09/19 14:09:41;;;;;;;0.50;0.20;;;;;;;31.54;20.18;98544.41;6014856;23;20161;-91
2022/09/19 14:12:35;;;;;;;1.40;0.30;;;;;;;31.63;20.58;98541.38;6036804;23;20173;-91
2022/09/19 14:15:05;;;;;;;1.23;0.45;;;;;;;31.75;20.54;98539.53;6131464;23;20186;-92
2022/09/19 14:17:33;;;;;;;1.77;0.60;;;;;;;32.04;20.71;98533.28;6131528;23;20213;-92
2022/09/19 14:20:05;;;;;;;1.58;0.30;;;;;;;31.79;20.53;98538.03;6130709;23;20197;-91
2022/09/19 14:37:31;;;;;;;;;;;;;;;;;;;;;
2022/09/19 21:49:43;;;;;;;1.97;0.67;;;;;;;17.71;45.81;98722.22;6156196;23;20484;-90
2022/09/19 21:53:15;;;;;;;1.77;0.60;;;;;;;17.62;45.37;98736.28;6039461;23;20172;-96
2022/09/19 21:56:32;;;;;;;2.03;0.60;;;;;;;17.63;44.99;98734.47;5945593;24;20206;-91
2022/09/19 22:22:49;;;;;;;0.90;0.47;;;;;;;17.62;44.91;98780.50;6157182;23;20146;-91
2022/09/19 22:29:06;;;;;;;1.13;0.63;;;;;;;17.56;45.42;98794.28;6156491;23;20241;-94
